createdAt,value
2022-08-04T00:00:22.449Z,76.90
2022-08-04T00:03:17.662Z,76.90
2022-08-04T00:06:12.007Z,76.90
2022-08-04T00:09:09.122Z,77.00
2022-08-04T00:12:02.590Z,77.10
2022-08-04T00:14:58.265Z,77.20
2022-08-04T00:17:50.523Z,77.10
2022-08-04T00:20:42.547Z,77.20
2022-08-04T00:24:10.815Z,77.30
2022-08-04T00:26:45.741Z,77.30
2022-08-04T00:29:34.789Z,77.30
2022-08-04T00:32:33.954Z,77.40
2022-08-04T00:35:23.571Z,77.40
2022-08-04T00:38:12.394Z,77.50
2022-08-04T00:41:09.107Z,77.50
2022-08-04T00:44:23.889Z,77.40
2022-08-04T00:47:30.985Z,77.50
2022-08-04T00:50:26.127Z,77.50
2022-08-04T00:53:20.793Z,77.60
2022-08-04T00:56:47.261Z,77.70
2022-08-04T00:59:52.874Z,77.80
2022-08-04T01:03:07.369Z,77.70
2022-08-04T01:06:10.857Z,77.80
2022-08-04T01:09:28.356Z,77.80
2022-08-04T01:12:33.766Z,77.90
2022-08-04T01:15:32.706Z,77.90
2022-08-04T01:18:56.288Z,77.90
2022-08-04T01:22:16.753Z,78.00
2022-08-04T01:25:40.472Z,78.00
2022-08-04T01:28:42.905Z,78.10
2022-08-04T01:31:42.364Z,78.10
2022-08-04T01:34:32.899Z,78.10
2022-08-04T01:37:25.287Z,78.10
2022-08-04T01:40:15.725Z,78.10
2022-08-04T01:43:05.837Z,78.20
2022-08-04T01:45:59.210Z,78.30
2022-08-04T01:48:55.361Z,78.30
2022-08-04T01:51:45.546Z,78.30
2022-08-04T01:54:37.430Z,78.40
2022-08-04T01:57:38.326Z,78.40
2022-08-04T02:00:30.617Z,78.50
2022-08-04T02:03:19.823Z,78.50
2022-08-04T02:06:20.286Z,78.50
2022-08-04T02:09:18.710Z,78.50
2022-08-04T02:12:21.278Z,78.50
2022-08-04T02:15:15.347Z,78.50
2022-08-04T02:18:07.050Z,78.60
2022-08-04T02:21:00.145Z,78.70
2022-08-04T02:23:55.571Z,78.70
2022-08-04T02:26:48.297Z,78.70
2022-08-04T02:29:47.238Z,78.70
2022-08-04T02:32:40.980Z,78.80
2022-08-04T02:35:30.593Z,78.80
2022-08-04T02:38:26.150Z,78.90
2022-08-04T02:41:18.402Z,78.90
2022-08-04T02:44:09.178Z,79.00
2022-08-04T02:46:58.723Z,79.00
2022-08-04T02:49:48.079Z,79.10
2022-08-04T02:52:38.112Z,79.10
2022-08-04T02:55:28.641Z,79.10
2022-08-04T02:58:21.772Z,79.10
2022-08-04T03:01:10.095Z,79.20
2022-08-04T03:04:24.976Z,79.20
2022-08-04T03:07:44.529Z,79.20
2022-08-04T03:11:07.085Z,79.20
2022-08-04T03:14:38.902Z,79.30
2022-08-04T03:18:00.071Z,79.30
2022-08-04T03:21:18.836Z,79.40
2022-08-04T03:24:43.498Z,79.40
2022-08-04T03:27:50.777Z,79.50
2022-08-04T03:30:53.145Z,79.50
2022-08-04T03:34:17.436Z,79.50
2022-08-04T03:37:21.279Z,79.60
2022-08-04T03:40:34.528Z,79.60
2022-08-04T03:43:57.446Z,79.70
2022-08-04T03:47:26.065Z,79.60
2022-08-04T03:50:46.810Z,80.20
2022-08-04T03:53:58.930Z,79.60
2022-08-04T03:57:16.192Z,79.50
2022-08-04T04:00:08.996Z,79.40
2022-08-04T04:03:36.626Z,79.50
2022-08-04T04:07:01.222Z,79.50
2022-08-04T04:10:12.092Z,79.50
2022-08-04T04:13:31.008Z,79.50
2022-08-04T04:16:38.762Z,79.70
2022-08-04T04:19:59.373Z,79.70
2022-08-04T04:23:10.262Z,79.80
2022-08-04T04:26:22.952Z,79.70
2022-08-04T04:29:30.818Z,79.70
2022-08-04T04:32:24.947Z,79.80
2022-08-04T04:35:24.378Z,79.80
2022-08-04T04:38:36.557Z,79.80
2022-08-04T04:41:46.656Z,79.90
2022-08-04T04:44:57.230Z,80.00
2022-08-04T04:48:09.919Z,78.00
2022-08-04T04:51:10.022Z,76.30
2022-08-04T04:54:06.408Z,75.50
2022-08-04T04:57:06.449Z,75.80
2022-08-04T04:59:59.650Z,75.30
2022-08-04T05:03:12.178Z,75.20
2022-08-04T05:06:21.796Z,74.80
2022-08-04T05:09:29.248Z,74.10
2022-08-04T05:14:32.957Z,74.90
2022-08-04T05:15:47.699Z,75.10
2022-08-04T05:18:40.025Z,75.10
2022-08-04T05:21:38.878Z,74.70
2022-08-04T05:24:30.260Z,74.50
2022-08-04T05:27:31.219Z,74.30
2022-08-04T05:30:21.299Z,73.70
2022-08-04T05:33:13.992Z,73.50
2022-08-04T05:36:21.741Z,72.90
2022-08-04T05:39:21.774Z,72.80
2022-08-04T05:42:12.645Z,72.60
2022-08-04T05:45:03.488Z,72.10
2022-08-04T05:47:54.054Z,72.30
2022-08-04T05:50:42.920Z,71.70
2022-08-04T05:53:33.084Z,71.90
2022-08-04T05:56:21.549Z,72.20
2022-08-04T05:59:11.973Z,72.10
2022-08-04T06:02:03.788Z,72.00
2022-08-04T06:04:54.597Z,71.70
2022-08-04T06:08:04.586Z,71.60
2022-08-04T06:10:54.851Z,71.90
2022-08-04T06:13:48.788Z,72.50
2022-08-04T06:16:47.027Z,72.40
2022-08-04T06:20:01.199Z,72.60
2022-08-04T06:22:55.530Z,72.30
2022-08-04T06:25:48.718Z,72.20
2022-08-04T06:28:39.031Z,72.40
2022-08-04T06:32:28.112Z,72.70
2022-08-04T06:34:58.751Z,72.70
2022-08-04T06:37:48.904Z,72.80
2022-08-04T06:40:38.081Z,72.60
2022-08-04T06:43:27.803Z,72.70
2022-08-04T06:46:18.848Z,72.80
2022-08-04T06:49:07.297Z,73.00
2022-08-04T06:51:58.358Z,72.90
2022-08-04T06:54:46.965Z,72.80
2022-08-04T06:57:36.732Z,72.80
2022-08-04T07:00:27.352Z,73.10
2022-08-04T07:03:17.854Z,73.40
2022-08-04T07:06:14.761Z,72.90
2022-08-04T07:09:06.905Z,72.70
2022-08-04T07:11:55.895Z,72.90
2022-08-04T07:14:44.924Z,73.80
2022-08-04T07:17:34.723Z,72.60
2022-08-04T07:20:34.410Z,73.30
2022-08-04T07:23:26.794Z,73.30
2022-08-04T07:26:19.205Z,73.70
2022-08-04T07:29:08.024Z,74.00
2022-08-04T07:31:57.509Z,74.70
2022-08-04T07:34:49.761Z,74.60
2022-08-04T07:37:40.098Z,74.00
2022-08-04T07:40:28.794Z,73.70
2022-08-04T07:43:18.667Z,73.20
2022-08-04T07:46:06.847Z,73.50
2022-08-04T07:48:55.850Z,74.40
2022-08-04T07:51:44.290Z,75.40
2022-08-04T07:54:34.388Z,75.80
2022-08-04T07:57:39.969Z,74.60
2022-08-04T08:00:32.777Z,73.40
2022-08-04T08:03:22.315Z,74.30
2022-08-04T08:06:17.508Z,74.80
2022-08-04T08:09:22.217Z,74.60
2022-08-04T08:12:37.594Z,73.60
2022-08-04T08:15:21.425Z,73.00
2022-08-04T08:18:11.625Z,71.40
2022-08-04T08:21:00.188Z,71.40
2022-08-04T08:23:49.487Z,71.30
2022-08-04T08:26:38.500Z,71.70
2022-08-04T08:29:27.888Z,71.20
2022-08-04T08:32:17.361Z,71.40
2022-08-04T08:35:08.262Z,71.40
2022-08-04T08:37:59.165Z,71.40
2022-08-04T08:40:53.142Z,71.70
2022-08-04T08:44:06.816Z,71.80
2022-08-04T08:47:07.964Z,72.00
2022-08-04T08:50:30.158Z,72.00
2022-08-04T08:53:59.823Z,72.60
2022-08-04T08:56:59.384Z,72.10
2022-08-04T09:00:00.024Z,72.50
2022-08-04T09:03:33.407Z,72.20
2022-08-04T09:06:47.819Z,71.70
2022-08-04T09:09:50.820Z,72.70
2022-08-04T09:12:47.858Z,73.90
2022-08-04T09:15:41.249Z,73.70
2022-08-04T09:18:37.832Z,74.50
2022-08-04T09:21:32.263Z,74.20
2022-08-04T09:24:35.840Z,72.80
2022-08-04T09:27:29.576Z,71.90
2022-08-04T09:30:21.801Z,72.00
2022-08-04T09:33:22.674Z,71.10
2022-08-04T09:36:37.091Z,71.30
2022-08-04T09:39:30.742Z,71.30
2022-08-04T09:42:29.302Z,71.00
2022-08-04T09:45:26.495Z,72.30
2022-08-04T09:48:35.916Z,72.60
2022-08-04T09:51:58.861Z,71.70
2022-08-04T09:54:54.201Z,71.80
2022-08-04T09:57:53.063Z,71.80
2022-08-04T10:00:48.689Z,70.30
2022-08-04T10:03:40.473Z,70.10
2022-08-04T10:06:50.252Z,70.10
2022-08-04T10:10:12.374Z,71.60
2022-08-04T10:13:22.755Z,71.10
2022-08-04T10:16:26.300Z,71.10
2022-08-04T10:19:25.785Z,71.30
2022-08-04T10:22:30.689Z,71.50
2022-08-04T10:25:38.170Z,71.50
2022-08-04T10:28:50.995Z,71.10
2022-08-04T10:31:47.571Z,70.70
2022-08-04T10:34:44.691Z,70.50
2022-08-04T10:38:00.266Z,71.30
2022-08-04T10:40:57.402Z,71.70
2022-08-04T10:43:54.300Z,71.60
2022-08-04T10:46:48.842Z,72.20
2022-08-04T10:49:40.297Z,72.40
2022-08-04T10:52:35.866Z,72.30
2022-08-04T10:56:06.194Z,71.70
2022-08-04T10:58:50.986Z,70.80
2022-08-04T11:02:00.893Z,70.40
2022-08-04T11:04:59.596Z,70.50
2022-08-04T11:07:51.493Z,70.40
2022-08-04T11:10:44.657Z,70.70
2022-08-04T11:13:42.728Z,70.40
2022-08-04T11:16:41.218Z,71.60
2022-08-04T11:19:44.966Z,70.90
2022-08-04T11:22:46.062Z,71.10
2022-08-04T11:25:43.059Z,71.30
2022-08-04T11:28:44.725Z,70.70
2022-08-04T11:31:37.468Z,69.70
2022-08-04T11:34:28.099Z,70.50
2022-08-04T11:37:22.325Z,69.80
2022-08-04T11:40:17.194Z,70.50
2022-08-04T11:43:10.292Z,70.60
2022-08-04T11:46:03.356Z,69.50
2022-08-04T11:48:59.989Z,69.10
2022-08-04T11:51:50.115Z,69.00
2022-08-04T11:54:39.855Z,69.00
2022-08-04T11:57:35.631Z,69.10
2022-08-04T12:00:27.886Z,69.10
2022-08-04T12:03:33.644Z,68.80
2022-08-04T12:06:38.083Z,68.70
2022-08-04T12:09:35.920Z,68.80
2022-08-04T12:12:32.431Z,68.60
2022-08-04T12:15:27.848Z,67.90
2022-08-04T12:18:23.043Z,67.70
2022-08-04T12:21:20.067Z,67.70
2022-08-04T12:24:17.894Z,68.00
2022-08-04T12:27:13.366Z,67.10
2022-08-04T12:30:59.316Z,66.70
2022-08-04T12:33:21.419Z,66.80
2022-08-04T12:36:21.624Z,66.80
2022-08-04T12:39:17.827Z,66.40
2022-08-04T12:42:21.524Z,66.40
2022-08-04T12:45:11.925Z,65.70
2022-08-04T12:48:02.215Z,66.20
2022-08-04T12:50:54.094Z,66.60
2022-08-04T12:53:50.880Z,66.90
2022-08-04T12:56:43.113Z,66.70
2022-08-04T12:59:31.601Z,66.20
2022-08-04T13:02:25.401Z,65.70
2022-08-04T13:05:16.922Z,66.00
2022-08-04T13:08:07.768Z,66.10
2022-08-04T13:10:59.893Z,66.10
2022-08-04T13:14:17.272Z,66.00
2022-08-04T13:17:05.657Z,66.00
2022-08-04T13:19:56.535Z,65.90
2022-08-04T13:22:46.332Z,65.80
2022-08-04T13:26:42.868Z,65.60
2022-08-04T13:28:51.542Z,65.70
2022-08-04T13:31:52.876Z,65.10
2022-08-04T13:34:49.606Z,64.60
2022-08-04T13:37:43.696Z,64.30
2022-08-04T13:40:32.737Z,64.20
2022-08-04T13:44:15.495Z,63.60
2022-08-04T13:46:40.510Z,63.30
2022-08-04T13:50:00.984Z,63.30
2022-08-04T13:52:48.078Z,63.40
2022-08-04T13:55:38.368Z,63.60
2022-08-04T13:58:27.608Z,63.40
2022-08-04T14:01:20.745Z,63.10
2022-08-04T14:04:28.821Z,63.40
2022-08-04T14:07:21.211Z,63.20
2022-08-04T14:10:12.679Z,63.90
2022-08-04T14:13:01.507Z,64.20
2022-08-04T14:16:02.262Z,64.20
2022-08-04T14:19:01.323Z,63.40
2022-08-04T14:21:51.174Z,63.10
2022-08-04T14:24:39.852Z,63.00
2022-08-04T14:27:30.489Z,63.30
2022-08-04T14:30:27.436Z,63.00
2022-08-04T14:33:59.690Z,62.40
2022-08-04T14:36:25.427Z,61.70
2022-08-04T14:39:15.267Z,61.30
2022-08-04T14:42:03.849Z,61.40
2022-08-04T14:44:56.114Z,61.70
2022-08-04T14:47:51.821Z,62.10
2022-08-04T14:50:42.699Z,62.20
2022-08-04T14:53:31.720Z,62.60
2022-08-04T14:56:45.063Z,62.60
2022-08-04T14:59:59.082Z,63.40
2022-08-04T15:02:49.748Z,64.40
2022-08-04T15:05:55.001Z,64.90
2022-08-04T15:08:47.511Z,65.30
2022-08-04T15:11:43.295Z,65.70
2022-08-04T15:14:37.658Z,66.10
2022-08-04T15:17:29.988Z,66.70
2022-08-04T15:20:19.679Z,66.10
2022-08-04T15:23:10.793Z,66.00
2022-08-04T15:26:04.527Z,67.00
2022-08-04T15:28:59.366Z,67.60
2022-08-04T15:32:05.966Z,68.10
2022-08-04T15:35:03.814Z,67.30
2022-08-04T15:38:01.863Z,66.80
2022-08-04T15:41:01.524Z,66.50
2022-08-04T15:44:07.987Z,66.40
2022-08-04T15:47:20.228Z,66.60
2022-08-04T15:50:10.958Z,66.50
2022-08-04T15:53:10.688Z,66.90
2022-08-04T15:56:01.601Z,67.10
2022-08-04T15:58:52.728Z,67.00
2022-08-04T16:01:43.306Z,67.10
2022-08-04T16:05:18.290Z,67.20
2022-08-04T16:08:12.936Z,67.20
2022-08-04T16:11:01.060Z,67.30
2022-08-04T16:14:09.946Z,67.50
2022-08-04T16:17:19.689Z,67.50
2022-08-04T16:20:14.604Z,67.60
2022-08-04T16:23:26.712Z,67.70
2022-08-04T16:26:46.196Z,68.00
2022-08-04T16:29:44.119Z,68.40
2022-08-04T16:32:42.382Z,68.40
2022-08-04T16:35:30.612Z,68.60
2022-08-04T16:38:19.113Z,68.70
2022-08-04T16:41:07.646Z,68.70
2022-08-04T16:44:52.333Z,68.90
2022-08-04T16:48:08.134Z,68.80
2022-08-04T16:51:04.966Z,68.90
2022-08-04T16:54:04.823Z,69.00
2022-08-04T16:56:56.252Z,69.40
2022-08-04T16:59:53.036Z,69.70
2022-08-04T17:02:42.276Z,69.90
2022-08-04T17:05:39.833Z,70.00
2022-08-04T17:08:31.700Z,70.40
2022-08-04T17:11:20.196Z,70.30
2022-08-04T17:14:09.219Z,71.00
2022-08-04T17:16:59.513Z,71.10
2022-08-04T17:19:53.777Z,71.60
2022-08-04T17:22:44.275Z,71.40
2022-08-04T17:25:52.170Z,71.60
2022-08-04T17:28:47.638Z,71.80
2022-08-04T17:31:40.707Z,72.00
2022-08-04T17:34:28.920Z,72.70
2022-08-04T17:37:38.550Z,72.70
2022-08-04T17:40:27.478Z,72.80
2022-08-04T17:44:05.193Z,72.80
2022-08-04T17:49:52.828Z,72.80
2022-08-04T17:52:45.107Z,72.90
2022-08-04T17:55:42.472Z,72.90
2022-08-04T17:58:31.491Z,73.00
2022-08-04T18:01:26.991Z,73.10
2022-08-04T18:04:34.578Z,73.00
2022-08-04T18:08:39.364Z,73.00
2022-08-04T18:10:54.717Z,73.00
2022-08-04T18:13:44.978Z,73.10
2022-08-04T18:16:44.549Z,73.40
2022-08-04T18:19:33.077Z,73.30
2022-08-04T18:22:37.061Z,73.40
2022-08-04T18:25:50.416Z,73.30
2022-08-04T18:28:36.323Z,73.50
2022-08-04T18:31:25.536Z,73.70
2022-08-04T18:34:20.444Z,73.90
2022-08-04T18:40:30.240Z,73.90
2022-08-04T18:46:34.059Z,74.10
2022-08-04T18:50:58.801Z,74.00
2022-08-04T18:52:33.468Z,74.10
2022-08-04T18:55:55.733Z,74.00
2022-08-04T18:58:30.977Z,74.10
2022-08-04T19:01:22.097Z,74.20
2022-08-04T19:04:34.249Z,74.10
2022-08-04T19:07:29.963Z,74.20
2022-08-04T19:10:23.682Z,74.20
2022-08-04T19:13:25.362Z,74.20
2022-08-04T19:16:16.719Z,74.20
2022-08-04T19:19:10.692Z,74.30
2022-08-04T19:22:02.785Z,74.50
2022-08-04T19:24:56.845Z,74.50
2022-08-04T19:27:45.494Z,74.50
2022-08-04T19:30:43.329Z,74.50
2022-08-04T19:33:58.663Z,74.50
2022-08-04T19:36:40.042Z,74.40
2022-08-04T19:39:36.071Z,74.30
2022-08-04T19:42:29.225Z,74.30
2022-08-04T19:45:17.909Z,74.40
2022-08-04T19:48:17.761Z,74.40
2022-08-04T19:51:08.126Z,74.40
2022-08-04T19:54:02.962Z,75.10
2022-08-04T19:57:00.953Z,74.60
2022-08-04T19:59:50.768Z,74.60
2022-08-04T20:02:42.991Z,74.70
2022-08-04T20:05:52.856Z,74.80
2022-08-04T20:08:48.506Z,75.00
2022-08-04T20:11:37.150Z,75.00
2022-08-04T20:14:32.854Z,75.00
2022-08-04T20:17:21.851Z,75.00
2022-08-04T20:20:29.338Z,75.10
2022-08-04T20:23:17.849Z,75.10
2022-08-04T20:26:26.397Z,75.30
2022-08-04T20:29:15.459Z,75.40
2022-08-04T20:32:26.434Z,75.30
2022-08-04T20:35:15.764Z,75.40
2022-08-04T20:38:05.748Z,75.50
2022-08-04T20:40:54.438Z,75.50
2022-08-04T20:43:43.102Z,75.50
2022-08-04T20:46:38.493Z,75.60
2022-08-04T20:49:35.017Z,75.60
2022-08-04T20:52:25.704Z,75.70
2022-08-04T20:55:15.104Z,75.80
2022-08-04T20:58:04.177Z,75.80
2022-08-04T21:00:53.284Z,75.80
2022-08-04T21:03:57.832Z,75.90
2022-08-04T21:06:50.334Z,76.00
2022-08-04T21:09:50.585Z,76.00
2022-08-04T21:12:39.297Z,76.10
2022-08-04T21:15:58.115Z,76.10
2022-08-04T21:18:36.412Z,76.10
2022-08-04T21:21:24.929Z,76.20
2022-08-04T21:24:26.556Z,76.30
2022-08-04T21:27:15.587Z,76.30
2022-08-04T21:33:12.999Z,76.40
2022-08-04T21:36:02.847Z,76.40
2022-08-04T21:38:52.554Z,76.40
2022-08-04T21:42:10.223Z,76.50
2022-08-04T21:44:51.019Z,76.50
2022-08-04T21:47:46.431Z,76.50
2022-08-04T21:50:37.904Z,76.60
2022-08-04T21:53:28.374Z,76.70
2022-08-04T21:56:17.109Z,76.70
2022-08-04T21:59:16.087Z,76.70
2022-08-04T22:02:19.356Z,76.80
2022-08-04T22:05:07.896Z,76.70
2022-08-04T22:07:57.507Z,76.80
2022-08-04T22:10:46.937Z,76.80
2022-08-04T22:13:52.570Z,76.90
2022-08-04T22:16:49.805Z,77.00
2022-08-04T22:19:50.272Z,77.00
2022-08-04T22:22:45.072Z,77.00
2022-08-04T22:25:39.594Z,77.00
2022-08-04T22:28:33.511Z,77.10
2022-08-04T22:31:26.102Z,77.00
2022-08-04T22:34:39.447Z,77.10
2022-08-04T22:37:36.103Z,77.20
2022-08-04T22:40:33.422Z,77.20
2022-08-04T22:43:33.775Z,77.20
2022-08-04T22:46:25.313Z,77.30
2022-08-04T22:49:14.145Z,77.30
2022-08-04T22:52:10.472Z,77.30
2022-08-04T22:55:06.304Z,77.30
2022-08-04T22:58:04.848Z,77.30
2022-08-04T23:00:58.032Z,77.40
2022-08-04T23:03:50.963Z,77.40
2022-08-04T23:06:44.713Z,77.40
2022-08-04T23:09:50.121Z,77.50
2022-08-04T23:12:39.725Z,77.60
2022-08-04T23:15:33.742Z,77.60
2022-08-04T23:18:22.574Z,77.60
2022-08-04T23:21:12.145Z,77.60
2022-08-04T23:24:02.757Z,77.60
2022-08-04T23:26:52.656Z,77.70
2022-08-04T23:29:52.733Z,77.70
2022-08-04T23:32:42.566Z,77.80
2022-08-04T23:35:34.567Z,77.70
2022-08-04T23:38:31.112Z,77.80
2022-08-04T23:41:20.916Z,77.90
2022-08-04T23:44:10.446Z,77.90
2022-08-04T23:47:01.210Z,78.00
2022-08-04T23:49:49.737Z,78.00
2022-08-04T23:52:38.461Z,78.00
2022-08-04T23:55:32.022Z,78.00
2022-08-04T23:58:28.346Z,78.00
